DEKBS EDDN-EDDN

Flight info

Callsign DEKBS
Flight time 0h 11m
Altitude
Route
Aircraft C172

Departure

Time 2026-05-01 14:18
Airport Nuremberg Airport (EDDN)

Arrival

Time 2026-05-01 14:29
Airport Nuremberg Airport (EDDN)
Time Latitude Longitude Altitude Speed Heading
2026-05-01 14:11 49.49568 11.07045 1011 ft 6 kts 10°
2026-05-01 14:12 49.49589 11.07122 1012 ft 11 kts 110°
2026-05-01 14:12 49.49633 11.07223 1014 ft 18 kts
2026-05-01 14:12 49.49699 11.07235 1014 ft 12 kts
2026-05-01 14:12 49.49739 11.07183 1014 ft 4 kts 279°
2026-05-01 14:13 49.49742 11.07132 1014 ft 15 kts 264°
2026-05-01 14:13 49.49810 11.07055 1014 ft 20 kts
2026-05-01 14:13 49.49844 11.07040 1014 ft 0 kts 335°
2026-05-01 14:15 49.49915 11.07024 1016 ft 19 kts 22°
2026-05-01 14:15 49.49939 11.07098 1016 ft 0 kts 104°
2026-05-01 14:16 49.49939 11.07100 1016 ft 0 kts 99°
2026-05-01 14:16 49.49911 11.07364 1016 ft 53 kts 97°
2026-05-01 14:17 49.49845 11.08054 1169 ft 68 kts 99°
2026-05-01 14:17 49.49800 11.08631 1200 ft 85 kts 101°
2026-05-01 14:17 49.49745 11.09364 1436 ft 76 kts 93°
2026-05-01 14:17 49.49750 11.10171 1613 ft 84 kts 90°
2026-05-01 14:18 49.49867 11.11055 1806 ft 88 kts 53°
2026-05-01 14:18 49.50468 11.11480 1933 ft 96 kts 19°
2026-05-01 14:18 49.51094 11.11689 1980 ft 94 kts 12°
2026-05-01 14:18 49.51560 11.11765 1983 ft 99 kts
2026-05-01 14:19 49.52414 11.11608 2026 ft 99 kts 314°
2026-05-01 14:19 49.52631 11.10573 1994 ft 98 kts 281°
2026-05-01 14:19 49.52681 11.09578 2211 ft 95 kts 265°
2026-05-01 14:19 49.52613 11.08554 2399 ft 95 kts 259°
2026-05-01 14:20 49.52580 11.07504 2573 ft 99 kts 267°
2026-05-01 14:20 49.52511 11.05339 2429 ft 101 kts 264°
2026-05-01 14:20 49.52566 11.04277 2326 ft 100 kts 273°
2026-05-01 14:21 49.52655 11.03230 2246 ft 95 kts 275°
2026-05-01 14:21 49.52760 11.02247 2183 ft 92 kts 272°
2026-05-01 14:21 49.52483 11.01531 2124 ft 85 kts 187°
2026-05-01 14:22 49.51911 11.00531 2106 ft 87 kts 322°
2026-05-01 14:22 49.52477 11.00506 2006 ft 87 kts 44°
2026-05-01 14:22 49.52544 11.01243 1987 ft 78 kts 136°
2026-05-01 14:22 49.52076 11.01120 1972 ft 84 kts 234°
2026-05-01 14:23 49.52300 11.00328 1899 ft 98 kts 351°
2026-05-01 14:23 49.52532 11.00935 1764 ft 85 kts 141°
2026-05-01 14:23 49.52090 11.00506 1659 ft 105 kts 269°
2026-05-01 14:23 49.52551 10.99981 1586 ft 88 kts 34°
2026-05-01 14:24 49.52439 11.00668 1592 ft 88 kts 174°
2026-05-01 14:24 49.52103 10.99914 1625 ft 113 kts 288°
2026-05-01 14:24 49.52704 10.99665 1794 ft 99 kts 56°
2026-05-01 14:24 49.52332 11.00045 1852 ft 109 kts 225°
2026-05-01 14:25 49.52654 10.99318 1893 ft 109 kts 22°
2026-05-01 14:25 49.52583 11.00008 2008 ft 100 kts 185°
2026-05-01 14:25 49.52613 10.99174 2094 ft 99 kts 359°
2026-05-01 14:25 49.52660 10.99773 2080 ft 101 kts 167°
2026-05-01 14:26 49.52377 10.98995 2377 ft 100 kts 294°
2026-05-01 14:26 49.52045 10.99390 2489 ft 90 kts 156°
2026-05-01 14:26 49.51416 10.99654 2565 ft 99 kts 154°
2026-05-01 14:27 49.50802 11.00159 2606 ft 101 kts 135°
2026-05-01 14:27 49.50451 11.01366 1569 ft 149 kts 104°
2026-05-01 14:27 49.50416 11.02437 1736 ft 86 kts 94°
2026-05-01 14:28 49.50263 11.04036 1451 ft 61 kts 98°
2026-05-01 14:28 49.50205 11.04634 1320 ft 54 kts 108°
2026-05-01 14:28 49.50128 11.05231 1216 ft 57 kts 104°
2026-05-01 14:28 49.50071 11.05832 1086 ft 57 kts 104°
2026-05-01 14:29 49.50008 11.06419 1018 ft 49 kts 104°
2026-05-01 14:29 49.49977 11.07012 1092 ft 64 kts 78°
2026-05-01 14:30 49.51603 11.06917 1529 ft 104 kts 316°
2026-05-01 14:30 49.51779 11.05847 1726 ft 101 kts 270°
2026-05-01 14:30 49.51833 11.04719 1884 ft 103 kts 267°
2026-05-01 14:31 49.50925 11.03245 1478 ft 128 kts 169°
2026-05-01 14:31 49.50426 11.04032 1437 ft 102 kts 130°
2026-05-01 14:31 49.50171 11.04843 1335 ft 82 kts 101°
2026-05-01 14:31 49.50092 11.05486 1289 ft 57 kts 101°
2026-05-01 14:32 49.50048 11.06113 1080 ft 55 kts 104°
2026-05-01 14:32 49.49990 11.06658 1022 ft 47 kts 100°
2026-05-01 14:32 49.49934 11.07177 1016 ft 65 kts 97°
2026-05-01 14:32 49.49861 11.07907 1199 ft 69 kts 98°
2026-05-01 14:33 49.49790 11.08750 1313 ft 84 kts 100°
2026-05-01 14:33 49.49736 11.09619 1562 ft 81 kts 95°
2026-05-01 14:33 49.49746 11.10483 1823 ft 75 kts 91°
2026-05-01 14:33 49.50226 11.10872 1886 ft 101 kts
2026-05-01 14:34 49.50896 11.10829 2083 ft 103 kts 324°
2026-05-01 14:34 49.51185 11.09769 2178 ft 108 kts 283°
2026-05-01 14:34 49.51263 11.08668 2054 ft 100 kts 269°
2026-05-01 14:34 49.51322 11.07670 1882 ft 89 kts 274°
2026-05-01 14:35 49.51352 11.06751 1753 ft 79 kts 264°
2026-05-01 14:35 49.51315 11.05872 1590 ft 86 kts 259°
2026-05-01 14:35 49.51205 11.04964 1511 ft 85 kts 253°
2026-05-01 14:35 49.51088 11.04144 1620 ft 74 kts 249°
2026-05-01 14:36 49.50780 11.03611 1774 ft 73 kts 182°
2026-05-01 14:36 49.50335 11.03692 1614 ft 71 kts 133°
2026-05-01 14:36 49.50229 11.04558 1408 ft 69 kts 84°
2026-05-01 14:36 49.50118 11.05441 1132 ft 106 kts 101°
2026-05-01 14:37 49.50004 11.06458 1017 ft 81 kts 102°
2026-05-01 14:37 49.49943 11.06983 1016 ft 22 kts 126°
2026-05-01 14:37 49.49830 11.07041 1014 ft 0 kts 158°
2026-05-01 14:37 49.49828 11.07043 1014 ft 0 kts 151°
2026-05-01 14:38 49.49777 11.07080 1014 ft 10 kts 165°
2026-05-01 14:38 49.49736 11.07162 1014 ft 19 kts 106°
2026-05-01 14:38 49.49609 11.07214 1014 ft 28 kts 194°
2026-05-01 14:38 49.49502 11.07208 1012 ft 14 kts 116°
2026-05-01 14:39 49.49491 11.07326 1014 ft 17 kts 78°
2026-05-01 14:39 49.49506 11.07357 1014 ft 0 kts 36°